sensor_id;sensor_type;location;lat;lon;timestamp;temperature;humidity
4695;DHT22;2361;49.540;8.390;2023-04-24T00:01:10;12.50;99.90
4695;DHT22;2361;49.540;8.390;2023-04-24T00:03:37;12.50;99.90
4695;DHT22;2361;49.540;8.390;2023-04-24T00:06:05;12.50;99.90
4695;DHT22;2361;49.540;8.390;2023-04-24T00:08:37;12.50;99.90
4695;DHT22;2361;49.540;8.390;2023-04-24T00:11:04;12.40;99.90
4695;DHT22;2361;49.540;8.390;2023-04-24T00:13:31;12.40;99.90
4695;DHT22;2361;49.540;8.390;2023-04-24T00:15:58;12.30;99.90
4695;DHT22;2361;49.540;8.390;2023-04-24T00:18:25;12.30;99.90
4695;DHT22;2361;49.540;8.390;2023-04-24T00:20:52;12.30;99.90
4695;DHT22;2361;49.540;8.390;2023-04-24T00:23:19;12.20;99.90
4695;DHT22;2361;49.540;8.390;2023-04-24T00:25:46;12.20;99.90
4695;DHT22;2361;49.540;8.390;2023-04-24T00:28:13;12.30;99.90
4695;DHT22;2361;49.540;8.390;2023-04-24T00:30:40;12.20;99.90
4695;DHT22;2361;49.540;8.390;2023-04-24T00:33:07;12.20;99.90
4695;DHT22;2361;49.540;8.390;2023-04-24T00:35:34;12.20;99.90
4695;DHT22;2361;49.540;8.390;2023-04-24T00:38:01;12.20;99.90
4695;DHT22;2361;49.540;8.390;2023-04-24T00:40:28;12.30;99.90
4695;DHT22;2361;49.540;8.390;2023-04-24T00:42:55;12.30;99.90
4695;DHT22;2361;49.540;8.390;2023-04-24T00:45:22;12.30;99.90
4695;DHT22;2361;49.540;8.390;2023-04-24T00:47:52;12.30;99.90
4695;DHT22;2361;49.540;8.390;2023-04-24T00:50:20;12.40;99.90
4695;DHT22;2361;49.540;8.390;2023-04-24T00:52:48;12.40;99.90
4695;DHT22;2361;49.540;8.390;2023-04-24T00:55:15;12.50;99.90
4695;DHT22;2361;49.540;8.390;2023-04-24T00:57:43;12.50;99.90
4695;DHT22;2361;49.540;8.390;2023-04-24T01:00:11;12.50;99.90
4695;DHT22;2361;49.540;8.390;2023-04-24T01:02:43;12.40;99.90
4695;DHT22;2361;49.540;8.390;2023-04-24T01:05:13;12.40;99.90
4695;DHT22;2361;49.540;8.390;2023-04-24T01:07:43;12.40;99.90
4695;DHT22;2361;49.540;8.390;2023-04-24T01:10:14;12.40;99.90
4695;DHT22;2361;49.540;8.390;2023-04-24T01:12:41;12.40;99.90
4695;DHT22;2361;49.540;8.390;2023-04-24T01:15:09;12.30;99.90
4695;DHT22;2361;49.540;8.390;2023-04-24T01:17:36;12.30;99.90
4695;DHT22;2361;49.540;8.390;2023-04-24T01:20:05;12.20;99.90
4695;DHT22;2361;49.540;8.390;2023-04-24T01:22:34;12.20;99.90
4695;DHT22;2361;49.540;8.390;2023-04-24T01:25:01;12.20;99.90
4695;DHT22;2361;49.540;8.390;2023-04-24T01:27:29;12.20;99.90
4695;DHT22;2361;49.540;8.390;2023-04-24T01:29:56;12.20;99.90
4695;DHT22;2361;49.540;8.390;2023-04-24T01:32:24;12.30;99.90
4695;DHT22;2361;49.540;8.390;2023-04-24T01:34:52;12.20;99.90
4695;DHT22;2361;49.540;8.390;2023-04-24T01:37:19;12.30;99.90
4695;DHT22;2361;49.540;8.390;2023-04-24T01:39:46;12.30;99.90
4695;DHT22;2361;49.540;8.390;2023-04-24T01:42:13;12.30;99.90
4695;DHT22;2361;49.540;8.390;2023-04-24T01:44:41;12.30;99.90
4695;DHT22;2361;49.540;8.390;2023-04-24T01:47:08;12.30;99.90
4695;DHT22;2361;49.540;8.390;2023-04-24T01:49:37;12.30;99.90
4695;DHT22;2361;49.540;8.390;2023-04-24T01:52:05;12.30;99.90
4695;DHT22;2361;49.540;8.390;2023-04-24T01:54:32;12.30;99.90
4695;DHT22;2361;49.540;8.390;2023-04-24T01:56:59;12.30;99.90
4695;DHT22;2361;49.540;8.390;2023-04-24T01:59:28;12.20;99.90
4695;DHT22;2361;49.540;8.390;2023-04-24T02:01:56;12.20;99.90
4695;DHT22;2361;49.540;8.390;2023-04-24T02:04:23;12.30;99.90
4695;DHT22;2361;49.540;8.390;2023-04-24T02:06:50;12.30;99.90
4695;DHT22;2361;49.540;8.390;2023-04-24T02:09:17;12.20;99.90
4695;DHT22;2361;49.540;8.390;2023-04-24T02:11:44;12.30;99.90
4695;DHT22;2361;49.540;8.390;2023-04-24T02:14:11;12.30;99.90
4695;DHT22;2361;49.540;8.390;2023-04-24T02:16:38;12.30;99.90
4695;DHT22;2361;49.540;8.390;2023-04-24T02:19:06;12.20;99.90
4695;DHT22;2361;49.540;8.390;2023-04-24T02:21:33;12.20;99.90
4695;DHT22;2361;49.540;8.390;2023-04-24T02:24:00;12.20;99.90
4695;DHT22;2361;49.540;8.390;2023-04-24T02:26:27;12.20;99.90
4695;DHT22;2361;49.540;8.390;2023-04-24T02:28:54;12.30;99.90
4695;DHT22;2361;49.540;8.390;2023-04-24T02:31:21;12.30;99.90
4695;DHT22;2361;49.540;8.390;2023-04-24T02:33:48;12.40;99.90
4695;DHT22;2361;49.540;8.390;2023-04-24T02:36:15;12.40;99.90
4695;DHT22;2361;49.540;8.390;2023-04-24T02:38:42;12.40;99.90
4695;DHT22;2361;49.540;8.390;2023-04-24T02:41:09;12.40;99.90
4695;DHT22;2361;49.540;8.390;2023-04-24T02:43:36;12.30;99.90
4695;DHT22;2361;49.540;8.390;2023-04-24T02:46:03;12.40;99.90
4695;DHT22;2361;49.540;8.390;2023-04-24T02:48:30;12.40;99.90
4695;DHT22;2361;49.540;8.390;2023-04-24T02:50:57;12.40;99.90
4695;DHT22;2361;49.540;8.390;2023-04-24T02:53:24;12.40;99.90
4695;DHT22;2361;49.540;8.390;2023-04-24T02:55:51;12.30;99.90
4695;DHT22;2361;49.540;8.390;2023-04-24T02:58:18;12.30;99.90
4695;DHT22;2361;49.540;8.390;2023-04-24T03:00:46;12.30;99.90
4695;DHT22;2361;49.540;8.390;2023-04-24T03:03:14;12.30;99.90
4695;DHT22;2361;49.540;8.390;2023-04-24T03:05:41;12.20;99.90
4695;DHT22;2361;49.540;8.390;2023-04-24T03:08:08;12.20;99.90
4695;DHT22;2361;49.540;8.390;2023-04-24T03:10:36;12.10;99.90
4695;DHT22;2361;49.540;8.390;2023-04-24T03:13:04;12.10;99.90
4695;DHT22;2361;49.540;8.390;2023-04-24T03:15:31;12.10;99.90
4695;DHT22;2361;49.540;8.390;2023-04-24T03:17:58;12.10;99.90
4695;DHT22;2361;49.540;8.390;2023-04-24T03:20:25;12.10;99.90
4695;DHT22;2361;49.540;8.390;2023-04-24T03:22:52;12.10;99.90
4695;DHT22;2361;49.540;8.390;2023-04-24T03:25:19;12.00;99.90
4695;DHT22;2361;49.540;8.390;2023-04-24T03:27:46;12.10;99.90
4695;DHT22;2361;49.540;8.390;2023-04-24T03:30:13;12.10;99.90
4695;DHT22;2361;49.540;8.390;2023-04-24T03:32:40;12.00;99.90
4695;DHT22;2361;49.540;8.390;2023-04-24T03:35:07;12.00;99.90
4695;DHT22;2361;49.540;8.390;2023-04-24T03:37:35;12.00;99.90
4695;DHT22;2361;49.540;8.390;2023-04-24T03:40:02;12.00;99.90
4695;DHT22;2361;49.540;8.390;2023-04-24T03:42:29;12.00;99.90
4695;DHT22;2361;49.540;8.390;2023-04-24T03:44:56;12.00;99.90
4695;DHT22;2361;49.540;8.390;2023-04-24T03:47:23;12.00;99.90
4695;DHT22;2361;49.540;8.390;2023-04-24T03:49:50;12.00;99.90
4695;DHT22;2361;49.540;8.390;2023-04-24T03:52:17;12.00;99.90
4695;DHT22;2361;49.540;8.390;2023-04-24T03:54:44;11.90;99.90
4695;DHT22;2361;49.540;8.390;2023-04-24T03:57:11;11.80;99.90
4695;DHT22;2361;49.540;8.390;2023-04-24T03:59:38;11.70;99.90
4695;DHT22;2361;49.540;8.390;2023-04-24T04:02:05;11.60;99.90
4695;DHT22;2361;49.540;8.390;2023-04-24T04:04:32;11.60;99.90
4695;DHT22;2361;49.540;8.390;2023-04-24T04:06:59;11.60;99.90
4695;DHT22;2361;49.540;8.390;2023-04-24T04:09:29;11.50;99.90
4695;DHT22;2361;49.540;8.390;2023-04-24T04:11:56;11.50;99.90
4695;DHT22;2361;49.540;8.390;2023-04-24T04:14:23;11.50;99.90
4695;DHT22;2361;49.540;8.390;2023-04-24T04:16:50;11.50;99.90
4695;DHT22;2361;49.540;8.390;2023-04-24T04:19:21;11.50;99.90
4695;DHT22;2361;49.540;8.390;2023-04-24T04:21:48;11.40;99.90
4695;DHT22;2361;49.540;8.390;2023-04-24T04:24:19;11.40;99.90
4695;DHT22;2361;49.540;8.390;2023-04-24T04:26:50;11.30;99.90
4695;DHT22;2361;49.540;8.390;2023-04-24T04:29:18;11.40;99.90
4695;DHT22;2361;49.540;8.390;2023-04-24T04:31:45;11.30;99.90
4695;DHT22;2361;49.540;8.390;2023-04-24T04:34:12;11.30;99.90
4695;DHT22;2361;49.540;8.390;2023-04-24T04:36:41;11.20;99.90
4695;DHT22;2361;49.540;8.390;2023-04-24T04:39:08;11.20;99.90
4695;DHT22;2361;49.540;8.390;2023-04-24T04:41:35;11.10;99.90
4695;DHT22;2361;49.540;8.390;2023-04-24T04:44:02;11.10;99.90
4695;DHT22;2361;49.540;8.390;2023-04-24T04:46:31;11.10;99.90
4695;DHT22;2361;49.540;8.390;2023-04-24T04:49:03;11.10;99.90
4695;DHT22;2361;49.540;8.390;2023-04-24T04:51:31;11.10;99.90
4695;DHT22;2361;49.540;8.390;2023-04-24T04:53:58;11.10;99.90
4695;DHT22;2361;49.540;8.390;2023-04-24T04:56:25;11.10;99.90
4695;DHT22;2361;49.540;8.390;2023-04-24T04:58:52;11.20;99.90
4695;DHT22;2361;49.540;8.390;2023-04-24T05:01:19;11.30;99.90
4695;DHT22;2361;49.540;8.390;2023-04-24T05:03:46;11.40;99.90
4695;DHT22;2361;49.540;8.390;2023-04-24T05:06:13;11.60;99.90
4695;DHT22;2361;49.540;8.390;2023-04-24T05:08:40;11.80;99.90
4695;DHT22;2361;49.540;8.390;2023-04-24T05:11:07;12.20;99.90
4695;DHT22;2361;49.540;8.390;2023-04-24T05:13:34;12.50;99.90
4695;DHT22;2361;49.540;8.390;2023-04-24T05:16:06;12.80;99.90
4695;DHT22;2361;49.540;8.390;2023-04-24T05:18:34;13.00;99.90
4695;DHT22;2361;49.540;8.390;2023-04-24T05:21:01;13.30;99.90
4695;DHT22;2361;49.540;8.390;2023-04-24T05:23:28;13.50;99.90
4695;DHT22;2361;49.540;8.390;2023-04-24T05:25:55;13.60;99.90
4695;DHT22;2361;49.540;8.390;2023-04-24T05:28:22;13.60;99.90
4695;DHT22;2361;49.540;8.390;2023-04-24T05:30:49;13.70;99.90
4695;DHT22;2361;49.540;8.390;2023-04-24T05:33:16;13.80;99.90
4695;DHT22;2361;49.540;8.390;2023-04-24T05:35:43;13.90;99.90
4695;DHT22;2361;49.540;8.390;2023-04-24T05:38:13;13.90;99.90
4695;DHT22;2361;49.540;8.390;2023-04-24T05:40:41;14.00;99.90
4695;DHT22;2361;49.540;8.390;2023-04-24T05:43:08;14.30;99.90
4695;DHT22;2361;49.540;8.390;2023-04-24T05:45:35;14.90;99.90
4695;DHT22;2361;49.540;8.390;2023-04-24T05:48:03;15.50;99.90
4695;DHT22;2361;49.540;8.390;2023-04-24T05:50:30;16.20;99.90
4695;DHT22;2361;49.540;8.390;2023-04-24T05:52:57;16.70;99.90
4695;DHT22;2361;49.540;8.390;2023-04-24T05:55:28;16.80;99.90
4695;DHT22;2361;49.540;8.390;2023-04-24T05:57:56;16.60;99.90
4695;DHT22;2361;49.540;8.390;2023-04-24T06:00:24;16.40;99.90
4695;DHT22;2361;49.540;8.390;2023-04-24T06:02:51;16.00;99.90
4695;DHT22;2361;49.540;8.390;2023-04-24T06:05:19;15.80;99.90
4695;DHT22;2361;49.540;8.390;2023-04-24T06:07:47;15.50;99.90
4695;DHT22;2361;49.540;8.390;2023-04-24T06:10:14;15.30;99.90
4695;DHT22;2361;49.540;8.390;2023-04-24T06:12:42;15.00;99.90
4695;DHT22;2361;49.540;8.390;2023-04-24T06:15:09;15.00;99.90
4695;DHT22;2361;49.540;8.390;2023-04-24T06:17:36;15.10;99.90
4695;DHT22;2361;49.540;8.390;2023-04-24T06:20:04;15.10;99.90
4695;DHT22;2361;49.540;8.390;2023-04-24T06:22:32;15.10;99.90
4695;DHT22;2361;49.540;8.390;2023-04-24T06:25:00;14.90;99.90
4695;DHT22;2361;49.540;8.390;2023-04-24T06:27:27;14.60;99.90
4695;DHT22;2361;49.540;8.390;2023-04-24T06:29:54;14.30;99.90
4695;DHT22;2361;49.540;8.390;2023-04-24T06:32:23;14.00;99.90
4695;DHT22;2361;49.540;8.390;2023-04-24T06:34:52;13.70;99.90
4695;DHT22;2361;49.540;8.390;2023-04-24T06:37:20;13.40;99.90
4695;DHT22;2361;49.540;8.390;2023-04-24T06:39:47;13.30;99.90
4695;DHT22;2361;49.540;8.390;2023-04-24T06:42:14;13.20;99.90
4695;DHT22;2361;49.540;8.390;2023-04-24T06:44:41;13.10;99.90
4695;DHT22;2361;49.540;8.390;2023-04-24T06:47:12;13.00;99.90
4695;DHT22;2361;49.540;8.390;2023-04-24T06:49:41;13.00;99.90
4695;DHT22;2361;49.540;8.390;2023-04-24T06:52:09;13.00;99.90
4695;DHT22;2361;49.540;8.390;2023-04-24T06:54:36;13.20;99.90
4695;DHT22;2361;49.540;8.390;2023-04-24T06:57:03;13.40;99.90
4695;DHT22;2361;49.540;8.390;2023-04-24T06:59:30;13.50;99.90
4695;DHT22;2361;49.540;8.390;2023-04-24T07:01:57;13.60;99.90
4695;DHT22;2361;49.540;8.390;2023-04-24T07:04:24;13.90;99.90
4695;DHT22;2361;49.540;8.390;2023-04-24T07:06:52;14.40;99.90
4695;DHT22;2361;49.540;8.390;2023-04-24T07:09:23;15.60;99.90
4695;DHT22;2361;49.540;8.390;2023-04-24T07:11:51;17.10;99.90
4695;DHT22;2361;49.540;8.390;2023-04-24T07:14:20;18.60;99.90
4695;DHT22;2361;49.540;8.390;2023-04-24T07:16:47;18.80;99.90
4695;DHT22;2361;49.540;8.390;2023-04-24T07:19:14;18.70;99.90
4695;DHT22;2361;49.540;8.390;2023-04-24T07:21:41;18.40;99.90
4695;DHT22;2361;49.540;8.390;2023-04-24T07:24:08;18.40;99.90
4695;DHT22;2361;49.540;8.390;2023-04-24T07:26:38;18.70;99.90
4695;DHT22;2361;49.540;8.390;2023-04-24T07:29:06;19.50;99.90
4695;DHT22;2361;49.540;8.390;2023-04-24T07:31:33;19.90;96.90
4695;DHT22;2361;49.540;8.390;2023-04-24T07:34:01;20.40;96.80
4695;DHT22;2361;49.540;8.390;2023-04-24T07:36:28;21.20;94.20
4695;DHT22;2361;49.540;8.390;2023-04-24T07:38:55;21.70;92.20
4695;DHT22;2361;49.540;8.390;2023-04-24T07:41:23;22.30;89.80
4695;DHT22;2361;49.540;8.390;2023-04-24T07:43:51;22.50;85.70
4695;DHT22;2361;49.540;8.390;2023-04-24T07:46:20;22.60;84.00
4695;DHT22;2361;49.540;8.390;2023-04-24T07:48:47;23.20;82.10
4695;DHT22;2361;49.540;8.390;2023-04-24T07:51:24;23.90;78.80
4695;DHT22;2361;49.540;8.390;2023-04-24T07:53:54;24.50;74.70
4695;DHT22;2361;49.540;8.390;2023-04-24T07:56:23;25.20;71.50
4695;DHT22;2361;49.540;8.390;2023-04-24T07:58:53;26.30;66.40
4695;DHT22;2361;49.540;8.390;2023-04-24T08:01:20;26.60;65.90
4695;DHT22;2361;49.540;8.390;2023-04-24T08:03:50;27.40;63.50
4695;DHT22;2361;49.540;8.390;2023-04-24T08:06:18;27.70;61.80
4695;DHT22;2361;49.540;8.390;2023-04-24T08:08:45;27.90;58.60
4695;DHT22;2361;49.540;8.390;2023-04-24T08:11:12;27.90;57.70
4695;DHT22;2361;49.540;8.390;2023-04-24T08:13:39;27.40;57.70
4695;DHT22;2361;49.540;8.390;2023-04-24T08:16:06;27.30;57.50
4695;DHT22;2361;49.540;8.390;2023-04-24T08:18:33;27.50;57.30
4695;DHT22;2361;49.540;8.390;2023-04-24T08:21:02;27.80;55.40
4695;DHT22;2361;49.540;8.390;2023-04-24T08:23:29;27.50;55.40
4695;DHT22;2361;49.540;8.390;2023-04-24T08:25:56;27.70;55.60
4695;DHT22;2361;49.540;8.390;2023-04-24T08:28:24;27.80;55.40
4695;DHT22;2361;49.540;8.390;2023-04-24T08:30:51;28.50;54.20
4695;DHT22;2361;49.540;8.390;2023-04-24T08:33:24;28.90;53.80
4695;DHT22;2361;49.540;8.390;2023-04-24T08:35:52;28.60;52.50
4695;DHT22;2361;49.540;8.390;2023-04-24T08:38:19;27.70;53.90
4695;DHT22;2361;49.540;8.390;2023-04-24T08:40:47;26.80;54.40
4695;DHT22;2361;49.540;8.390;2023-04-24T08:43:16;25.30;55.70
4695;DHT22;2361;49.540;8.390;2023-04-24T08:45:43;24.10;58.00
4695;DHT22;2361;49.540;8.390;2023-04-24T08:48:11;23.20;59.50
4695;DHT22;2361;49.540;8.390;2023-04-24T08:50:50;22.70;60.70
4695;DHT22;2361;49.540;8.390;2023-04-24T08:53:18;22.80;60.50
4695;DHT22;2361;49.540;8.390;2023-04-24T08:55:47;24.00;60.10
4695;DHT22;2361;49.540;8.390;2023-04-24T08:58:16;25.50;57.30
4695;DHT22;2361;49.540;8.390;2023-04-24T09:00:44;26.30;56.70
4695;DHT22;2361;49.540;8.390;2023-04-24T09:03:15;27.00;55.50
4695;DHT22;2361;49.540;8.390;2023-04-24T09:05:44;26.50;54.90
4695;DHT22;2361;49.540;8.390;2023-04-24T09:08:14;25.30;56.30
4695;DHT22;2361;49.540;8.390;2023-04-24T09:10:41;23.80;58.50
4695;DHT22;2361;49.540;8.390;2023-04-24T09:13:08;23.00;60.50
4695;DHT22;2361;49.540;8.390;2023-04-24T09:15:37;23.30;61.10
4695;DHT22;2361;49.540;8.390;2023-04-24T09:18:05;25.00;58.80
4695;DHT22;2361;49.540;8.390;2023-04-24T09:20:32;26.40;56.60
4695;DHT22;2361;49.540;8.390;2023-04-24T09:22:59;26.20;56.10
4695;DHT22;2361;49.540;8.390;2023-04-24T09:25:34;25.40;56.90
4695;DHT22;2361;49.540;8.390;2023-04-24T09:28:03;23.60;59.20
4695;DHT22;2361;49.540;8.390;2023-04-24T09:30:31;22.60;61.30
4695;DHT22;2361;49.540;8.390;2023-04-24T09:33:14;21.60;62.90
4695;DHT22;2361;49.540;8.390;2023-04-24T09:35:42;20.50;64.80
4695;DHT22;2361;49.540;8.390;2023-04-24T09:38:16;19.70;66.10
4695;DHT22;2361;49.540;8.390;2023-04-24T09:40:43;18.90;67.80
4695;DHT22;2361;49.540;8.390;2023-04-24T09:43:11;18.30;69.60
4695;DHT22;2361;49.540;8.390;2023-04-24T09:45:39;17.80;71.00
4695;DHT22;2361;49.540;8.390;2023-04-24T09:48:09;17.20;73.10
4695;DHT22;2361;49.540;8.390;2023-04-24T09:50:37;16.80;74.60
4695;DHT22;2361;49.540;8.390;2023-04-24T09:53:05;16.50;76.00
4695;DHT22;2361;49.540;8.390;2023-04-24T09:55:45;16.30;76.80
4695;DHT22;2361;49.540;8.390;2023-04-24T09:58:12;16.10;78.40
4695;DHT22;2361;49.540;8.390;2023-04-24T10:00:39;16.10;79.70
4695;DHT22;2361;49.540;8.390;2023-04-24T10:03:06;16.20;80.50
4695;DHT22;2361;49.540;8.390;2023-04-24T10:05:36;16.30;80.90
4695;DHT22;2361;49.540;8.390;2023-04-24T10:08:08;17.70;80.50
4695;DHT22;2361;49.540;8.390;2023-04-24T10:13:13;19.70;72.30
4695;DHT22;2361;49.540;8.390;2023-04-24T10:15:42;19.30;72.40
4695;DHT22;2361;49.540;8.390;2023-04-24T10:18:10;19.10;73.80
4695;DHT22;2361;49.540;8.390;2023-04-24T10:20:39;19.60;73.80
4695;DHT22;2361;49.540;8.390;2023-04-24T10:23:07;20.30;72.70
4695;DHT22;2361;49.540;8.390;2023-04-24T10:25:35;20.60;72.50
4695;DHT22;2361;49.540;8.390;2023-04-24T10:28:03;20.50;71.30
4695;DHT22;2361;49.540;8.390;2023-04-24T10:30:33;20.30;71.50
4695;DHT22;2361;49.540;8.390;2023-04-24T10:33:05;20.20;71.70
4695;DHT22;2361;49.540;8.390;2023-04-24T10:35:42;20.00;72.00
4695;DHT22;2361;49.540;8.390;2023-04-24T10:38:13;19.70;73.10
4695;DHT22;2361;49.540;8.390;2023-04-24T10:40:42;19.40;73.00
4695;DHT22;2361;49.540;8.390;2023-04-24T10:43:10;18.80;74.60
4695;DHT22;2361;49.540;8.390;2023-04-24T10:46:00;18.40;76.70
4695;DHT22;2361;49.540;8.390;2023-04-24T10:48:30;18.10;77.00
4695;DHT22;2361;49.540;8.390;2023-04-24T10:50:58;17.80;77.40
4695;DHT22;2361;49.540;8.390;2023-04-24T10:53:30;17.40;77.40
4695;DHT22;2361;49.540;8.390;2023-04-24T10:56:08;17.30;78.60
4695;DHT22;2361;49.540;8.390;2023-04-24T10:58:49;17.00;78.40
4695;DHT22;2361;49.540;8.390;2023-04-24T11:01:28;16.90;79.40
4695;DHT22;2361;49.540;8.390;2023-04-24T11:03:58;16.90;80.10
4695;DHT22;2361;49.540;8.390;2023-04-24T11:06:31;17.00;81.10
4695;DHT22;2361;49.540;8.390;2023-04-24T11:09:07;17.00;81.60
4695;DHT22;2361;49.540;8.390;2023-04-24T11:11:37;16.90;82.10
4695;DHT22;2361;49.540;8.390;2023-04-24T11:14:07;16.90;81.50
4695;DHT22;2361;49.540;8.390;2023-04-24T11:16:54;16.80;81.70
4695;DHT22;2361;49.540;8.390;2023-04-24T11:19:25;16.70;82.40
4695;DHT22;2361;49.540;8.390;2023-04-24T11:22:04;16.70;82.90
4695;DHT22;2361;49.540;8.390;2023-04-24T11:24:38;16.60;83.50
4695;DHT22;2361;49.540;8.390;2023-04-24T11:27:21;16.50;84.50
4695;DHT22;2361;49.540;8.390;2023-04-24T11:37:44;16.50;84.70
4695;DHT22;2361;49.540;8.390;2023-04-24T11:40:14;16.40;84.20
4695;DHT22;2361;49.540;8.390;2023-04-24T11:42:44;16.30;84.80
4695;DHT22;2361;49.540;8.390;2023-04-24T11:45:14;16.10;84.40
4695;DHT22;2361;49.540;8.390;2023-04-24T11:47:45;16.00;84.20
4695;DHT22;2361;49.540;8.390;2023-04-24T11:50:17;15.80;84.50
4695;DHT22;2361;49.540;8.390;2023-04-24T11:52:47;15.70;85.00
4695;DHT22;2361;49.540;8.390;2023-04-24T11:57:46;15.60;87.10
4695;DHT22;2361;49.540;8.390;2023-04-24T12:00:18;15.80;87.00
4695;DHT22;2361;49.540;8.390;2023-04-24T12:02:47;15.90;87.40
4695;DHT22;2361;49.540;8.390;2023-04-24T12:05:25;16.00;87.90
4695;DHT22;2361;49.540;8.390;2023-04-24T12:07:54;16.30;87.70
4695;DHT22;2361;49.540;8.390;2023-04-24T12:10:22;16.40;86.90
4695;DHT22;2361;49.540;8.390;2023-04-24T12:12:50;16.50;86.10
4695;DHT22;2361;49.540;8.390;2023-04-24T12:15:19;16.70;85.90
4695;DHT22;2361;49.540;8.390;2023-04-24T12:17:47;16.80;86.30
4695;DHT22;2361;49.540;8.390;2023-04-24T12:20:14;17.00;86.10
4695;DHT22;2361;49.540;8.390;2023-04-24T12:22:50;17.20;86.10
4695;DHT22;2361;49.540;8.390;2023-04-24T12:25:26;17.30;85.60
4695;DHT22;2361;49.540;8.390;2023-04-24T12:28:16;17.30;85.40
4695;DHT22;2361;49.540;8.390;2023-04-24T12:30:47;17.20;85.50
4695;DHT22;2361;49.540;8.390;2023-04-24T12:33:21;17.00;85.90
4695;DHT22;2361;49.540;8.390;2023-04-24T12:35:51;16.90;87.40
4695;DHT22;2361;49.540;8.390;2023-04-24T12:38:24;16.80;86.90
4695;DHT22;2361;49.540;8.390;2023-04-24T12:41:07;16.80;86.60
4695;DHT22;2361;49.540;8.390;2023-04-24T12:43:36;16.90;87.10
4695;DHT22;2361;49.540;8.390;2023-04-24T12:46:04;16.90;85.90
4695;DHT22;2361;49.540;8.390;2023-04-24T12:48:31;16.90;86.10
4695;DHT22;2361;49.540;8.390;2023-04-24T12:50:59;17.00;86.10
4695;DHT22;2361;49.540;8.390;2023-04-24T12:53:29;17.00;85.80
4695;DHT22;2361;49.540;8.390;2023-04-24T12:55:57;17.10;85.40
4695;DHT22;2361;49.540;8.390;2023-04-24T12:58:24;17.00;85.30
4695;DHT22;2361;49.540;8.390;2023-04-24T13:00:51;17.00;84.80
4695;DHT22;2361;49.540;8.390;2023-04-24T13:03:19;16.80;84.90
4695;DHT22;2361;49.540;8.390;2023-04-24T13:05:46;16.70;84.90
4695;DHT22;2361;49.540;8.390;2023-04-24T13:08:13;16.60;85.90
4695;DHT22;2361;49.540;8.390;2023-04-24T13:10:40;16.50;86.80
4695;DHT22;2361;49.540;8.390;2023-04-24T13:13:08;16.50;87.50
4695;DHT22;2361;49.540;8.390;2023-04-24T13:15:35;16.60;87.40
4695;DHT22;2361;49.540;8.390;2023-04-24T13:18:02;16.70;87.00
4695;DHT22;2361;49.540;8.390;2023-04-24T13:20:29;16.70;87.00
4695;DHT22;2361;49.540;8.390;2023-04-24T13:22:56;16.80;86.00
4695;DHT22;2361;49.540;8.390;2023-04-24T13:25:23;17.00;86.30
4695;DHT22;2361;49.540;8.390;2023-04-24T13:27:51;17.00;85.80
4695;DHT22;2361;49.540;8.390;2023-04-24T13:30:18;17.00;84.80
4695;DHT22;2361;49.540;8.390;2023-04-24T13:32:45;17.00;82.80
4695;DHT22;2361;49.540;8.390;2023-04-24T13:35:12;17.10;82.70
4695;DHT22;2361;49.540;8.390;2023-04-24T13:37:39;17.10;82.20
4695;DHT22;2361;49.540;8.390;2023-04-24T13:40:06;17.20;82.20
4695;DHT22;2361;49.540;8.390;2023-04-24T13:42:34;17.20;82.10
4695;DHT22;2361;49.540;8.390;2023-04-24T13:45:01;17.10;82.30
4695;DHT22;2361;49.540;8.390;2023-04-24T13:47:40;16.90;82.40
4695;DHT22;2361;49.540;8.390;2023-04-24T13:50:08;16.70;83.20
4695;DHT22;2361;49.540;8.390;2023-04-24T13:52:35;16.50;83.70
4695;DHT22;2361;49.540;8.390;2023-04-24T13:55:02;16.30;83.70
4695;DHT22;2361;49.540;8.390;2023-04-24T13:57:30;16.10;84.60
4695;DHT22;2361;49.540;8.390;2023-04-24T13:59:58;16.10;84.20
4695;DHT22;2361;49.540;8.390;2023-04-24T14:02:28;16.10;84.30
4695;DHT22;2361;49.540;8.390;2023-04-24T14:04:55;16.20;84.30
4695;DHT22;2361;49.540;8.390;2023-04-24T14:07:22;16.20;84.60
4695;DHT22;2361;49.540;8.390;2023-04-24T14:09:49;16.10;85.20
4695;DHT22;2361;49.540;8.390;2023-04-24T14:12:17;16.00;85.70
4695;DHT22;2361;49.540;8.390;2023-04-24T14:14:46;16.00;86.20
4695;DHT22;2361;49.540;8.390;2023-04-24T14:17:14;15.90;86.90
4695;DHT22;2361;49.540;8.390;2023-04-24T14:19:41;15.90;88.00
4695;DHT22;2361;49.540;8.390;2023-04-24T14:22:09;15.80;88.60
4695;DHT22;2361;49.540;8.390;2023-04-24T14:24:36;15.90;88.80
4695;DHT22;2361;49.540;8.390;2023-04-24T14:27:03;16.10;88.60
4695;DHT22;2361;49.540;8.390;2023-04-24T14:29:30;16.30;87.70
4695;DHT22;2361;49.540;8.390;2023-04-24T14:31:58;16.40;86.40
4695;DHT22;2361;49.540;8.390;2023-04-24T14:34:25;16.40;86.10
4695;DHT22;2361;49.540;8.390;2023-04-24T14:36:52;16.50;86.20
4695;DHT22;2361;49.540;8.390;2023-04-24T14:39:19;16.60;85.80
4695;DHT22;2361;49.540;8.390;2023-04-24T14:41:46;16.60;84.80
4695;DHT22;2361;49.540;8.390;2023-04-24T14:44:13;16.50;86.40
4695;DHT22;2361;49.540;8.390;2023-04-24T14:46:41;16.60;84.90
4695;DHT22;2361;49.540;8.390;2023-04-24T14:49:09;16.60;84.20
4695;DHT22;2361;49.540;8.390;2023-04-24T14:51:36;16.60;84.70
4695;DHT22;2361;49.540;8.390;2023-04-24T14:54:03;16.50;85.90
4695;DHT22;2361;49.540;8.390;2023-04-24T14:56:30;16.50;89.40
4695;DHT22;2361;49.540;8.390;2023-04-24T14:58:57;16.40;90.30
4695;DHT22;2361;49.540;8.390;2023-04-24T15:01:24;16.30;90.20
4695;DHT22;2361;49.540;8.390;2023-04-24T15:03:51;16.20;90.80
4695;DHT22;2361;49.540;8.390;2023-04-24T15:06:19;16.20;91.30
4695;DHT22;2361;49.540;8.390;2023-04-24T15:08:47;16.10;92.40
4695;DHT22;2361;49.540;8.390;2023-04-24T15:11:16;16.10;93.30
4695;DHT22;2361;49.540;8.390;2023-04-24T15:13:43;16.10;93.70
4695;DHT22;2361;49.540;8.390;2023-04-24T15:16:14;16.00;95.00
4695;DHT22;2361;49.540;8.390;2023-04-24T15:18:41;16.00;96.50
4695;DHT22;2361;49.540;8.390;2023-04-24T15:21:08;16.00;96.90
4695;DHT22;2361;49.540;8.390;2023-04-24T15:23:35;15.90;97.10
4695;DHT22;2361;49.540;8.390;2023-04-24T15:26:02;16.00;97.20
4695;DHT22;2361;49.540;8.390;2023-04-24T15:28:29;15.90;97.00
4695;DHT22;2361;49.540;8.390;2023-04-24T15:30:56;15.90;96.70
4695;DHT22;2361;49.540;8.390;2023-04-24T15:33:23;15.90;95.90
4695;DHT22;2361;49.540;8.390;2023-04-24T15:35:50;15.80;96.20
4695;DHT22;2361;49.540;8.390;2023-04-24T15:38:17;15.60;96.90
4695;DHT22;2361;49.540;8.390;2023-04-24T15:40:44;15.50;97.00
4695;DHT22;2361;49.540;8.390;2023-04-24T15:43:11;15.30;97.40
4695;DHT22;2361;49.540;8.390;2023-04-24T15:45:38;15.30;98.10
4695;DHT22;2361;49.540;8.390;2023-04-24T15:48:05;15.20;98.30
4695;DHT22;2361;49.540;8.390;2023-04-24T15:50:32;15.20;98.20
4695;DHT22;2361;49.540;8.390;2023-04-24T15:52:59;15.30;98.10
4695;DHT22;2361;49.540;8.390;2023-04-24T15:55:27;15.30;97.80
4695;DHT22;2361;49.540;8.390;2023-04-24T15:57:54;15.40;97.40
4695;DHT22;2361;49.540;8.390;2023-04-24T16:00:21;15.40;97.30
4695;DHT22;2361;49.540;8.390;2023-04-24T16:02:48;15.30;97.40
4695;DHT22;2361;49.540;8.390;2023-04-24T16:05:17;15.30;97.80
4695;DHT22;2361;49.540;8.390;2023-04-24T16:07:45;15.30;97.50
4695;DHT22;2361;49.540;8.390;2023-04-24T16:10:12;15.20;97.60
4695;DHT22;2361;49.540;8.390;2023-04-24T16:12:40;15.20;97.50
4695;DHT22;2361;49.540;8.390;2023-04-24T16:15:07;15.10;97.60
4695;DHT22;2361;49.540;8.390;2023-04-24T16:17:34;15.00;97.60
4695;DHT22;2361;49.540;8.390;2023-04-24T16:20:03;15.00;97.60
4695;DHT22;2361;49.540;8.390;2023-04-24T16:22:30;15.00;97.60